Aeroporto :
LOGIN :

Iscrizione | Disclaimer

   EN    FR    IT 

 










Sommario :    VFR   VFR Marginale   IFR   IFR Intensivo   IFR Molto Intensivo
Visibilità : 
Base nubi : 
>= 8 km
>= 3000ft
5 / 8 km
1000 / 3000 ft
1500m / 5 km
500 / 1000 ft
800 / 1500m
200 / 500 ft
< 800m
< 200 ft
Simboli :   Temporali  Nebbia  Neve Forte  Precipitazioni Forti  Vento > 20 kt
SIGMETs :   Varie  Temporali  Ghiacco  Turbolenza  Onda orograficha  Ceneri Vulcaniche






- Altitudine del aeroporto : 791 ft
- Codice IATA : KRK


EPKK - Krakow-Balice

ULTIMO METAR :
  • 231930Z 04005KT 360V060 9999 FEW045 BKN060 08/06 Q1003

METARs OBSOLETI :
  • 231900Z 06006KT 9999 BKN040 08/06 Q1003
  • 231830Z 06005KT 9999 BKN040 08/07 Q1003
  • 231800Z 04004KT 360V080 9999 BKN040 08/07 Q1003
  • 231730Z 04003KT 9999 BKN040 08/07 Q1003
  • 231700Z 06005KT 9999 BKN040 08/07 Q1003
  • 231630Z 07003KT 9999 FEW031 BKN040 08/07 Q1003
  • 231600Z 07004KT 9999 BKN040 08/07 Q1002
  • 231530Z 07002KT 9999 -RA FEW020 BKN038 09/07 Q1002

TAF TAF EPKK
Valido dal 23 a 18 ore il 24 a 18 ore UTC


231730Z 2318/2418 07004KT 9999 BKN040
BECMG 2406/2409 26010KT
PROB30
TEMPO 2408/2413 4500 -SHRA BKN013 BKN025CB
BECMG 2415/2418 VRB02KT



MetMap, La meteo Aeronautica in un colpo d'occhio ! - Copyright ORBIFLY Dicembre 2007 - Disclaimer

ORBIFLY MET'MAP TEAM :

Programmazione e sviluppo : Alexandra Zaïnal
Concezione : Baudouin d'Aumeries
Supporto tecnico e logistico : Manuel Goepfert
Aiuto : Marc-Olivier Méhu
Aiuto per la traduzione : Arnaldo La Scala




FONTI E CREDITI :

   NOAA